Time;durP1;ratioP1;P1;durP2;ratioP2;P2;SDS_P1;SDS_P2;PMS_P1;PMS_P2;Temp;Humidity;BMP_temperature;BMP_pressure;BME280_temperature;BME280_humidity;BME280_pressure;Samples;Min_cycle;Max_cycle;Signal;HPM_P1;HPM_P2
2023/06/24 00:00:11;;;;;;;20.67;18.90;;;16.00;99.90;;;;;;5069607;28;20416;-44
2023/06/24 00:02:37;;;;;;;20.00;18.47;;;16.10;99.90;;;;;;5069737;28;20427;-46
2023/06/24 00:05:04;;;;;;;22.00;20.03;;;16.00;99.90;;;;;;5069224;28;20470;-46
2023/06/24 00:07:30;;;;;;;20.60;18.87;;;16.00;99.90;;;;;;5069225;28;21083;-49
2023/06/24 00:09:55;;;;;;;21.00;19.40;;;16.00;99.90;;;;;;5069364;28;20480;-45
2023/06/24 00:12:21;;;;;;;19.33;17.93;;;16.00;99.90;;;;;;5069241;28;20447;-43
2023/06/24 00:14:47;;;;;;;20.27;18.87;;;16.00;99.90;;;;;;5069370;28;21005;-44
2023/06/24 00:17:13;;;;;;;20.90;19.00;;;16.00;99.90;;;;;;5069406;28;20232;-44
2023/06/24 00:19:38;;;;;;;20.90;19.37;;;16.00;99.90;;;;;;5068563;28;20503;-45
2023/06/24 00:22:06;;;;;;;20.40;18.80;;;16.10;99.90;;;;;;5069526;28;20181;-45
2023/06/24 00:24:31;;;;;;;21.27;19.47;;;16.10;99.90;;;;;;5069160;28;20200;-44
2023/06/24 00:26:57;;;;;;;19.73;18.20;;;16.10;99.90;;;;;;5069293;28;21095;-45
2023/06/24 00:29:23;;;;;;;20.77;19.07;;;16.10;99.90;;;;;;5069132;28;20261;-45
2023/06/24 00:31:48;;;;;;;20.00;18.40;;;16.00;99.90;;;;;;5069215;28;20233;-45
2023/06/24 00:34:14;;;;;;;21.23;19.60;;;16.10;99.90;;;;;;5069240;28;20185;-44
2023/06/24 00:36:40;;;;;;;21.47;19.73;;;16.10;99.90;;;;;;5068989;28;20231;-45
2023/06/24 00:39:05;;;;;;;20.50;18.90;;;16.10;99.90;;;;;;5069126;28;20411;-43
2023/06/24 00:41:33;;;;;;;20.90;19.20;;;16.10;99.90;;;;;;5069069;28;20188;-42
2023/06/24 00:43:59;;;;;;;20.37;18.77;;;16.20;99.90;;;;;;5069023;28;20173;-46
2023/06/24 00:46:26;;;;;;;21.27;19.57;;;16.20;99.90;;;;;;5066658;28;20764;-42
2023/06/24 00:48:53;;;;;;;20.63;19.07;;;16.20;99.90;;;;;;5068654;28;20415;-50
2023/06/24 00:51:21;;;;;;;21.20;19.17;;;16.20;99.90;;;;;;5068919;28;20430;-46
2023/06/24 00:53:47;;;;;;;21.27;19.47;;;16.20;99.90;;;;;;5068828;28;20438;-46
2023/06/24 00:56:16;;;;;;;21.50;19.60;;;16.20;99.90;;;;;;5068767;28;20504;-44
2023/06/24 00:58:43;;;;;;;20.93;19.07;;;16.20;99.90;;;;;;5068703;28;20411;-44
2023/06/24 01:01:10;;;;;;;22.23;20.43;;;16.30;99.90;;;;;;5068789;28;20423;-44
2023/06/24 01:03:37;;;;;;;21.53;19.83;;;16.30;99.90;;;;;;5068732;28;20469;-44
2023/06/24 01:06:03;;;;;;;21.83;20.03;;;16.30;99.90;;;;;;5067913;28;20837;-45
2023/06/24 01:08:29;;;;;;;22.30;20.30;;;16.30;99.90;;;;;;5068845;28;20922;-42
2023/06/24 01:10:54;;;;;;;22.30;20.20;;;16.30;99.90;;;;;;5068758;28;20423;-44
2023/06/24 01:13:20;;;;;;;22.17;20.17;;;16.30;99.90;;;;;;5068674;28;20224;-46
2023/06/24 01:15:46;;;;;;;20.67;18.87;;;16.30;99.90;;;;;;5068626;28;20201;-45
2023/06/24 01:18:30;;;;;;;21.47;19.57;;;16.30;99.90;;;;;;5068841;28;20484;-46
2023/06/24 01:21:21;;;;;;;21.43;19.63;;;16.30;99.90;;;;;;5069059;28;20548;-47
2023/06/24 01:24:01;;;;;;;22.80;20.83;;;16.30;99.90;;;;;;5068669;28;21226;-46
2023/06/24 01:26:58;;;;;;;24.57;22.17;;;16.30;99.90;;;;;;5068710;28;20944;-48
2023/06/24 01:29:54;;;;;;;20.70;18.80;;;16.30;99.90;;;;;;5068514;28;20454;-48
2023/06/24 01:32:33;;;;;;;22.97;20.77;;;16.30;99.90;;;;;;5070066;28;20430;-45
2023/06/24 01:35:13;;;;;;;24.03;21.93;;;16.30;99.90;;;;;;5072199;28;20468;-45
2023/06/24 01:37:51;;;;;;;23.13;21.00;;;16.30;99.90;;;;;;5072039;28;20470;-45
2023/06/24 01:40:25;;;;;;;23.50;21.50;;;16.30;99.90;;;;;;5072256;28;20511;-49
2023/06/24 01:42:52;;;;;;;23.67;21.50;;;16.30;99.90;;;;;;5071843;28;20415;-44
2023/06/24 01:45:35;;;;;;;24.53;22.27;;;16.30;99.90;;;;;;5054105;28;20521;-45
2023/06/24 01:48:19;;;;;;;23.63;21.53;;;16.30;99.90;;;;;;5053395;28;20446;-49
2023/06/24 01:51:12;;;;;;;25.00;22.30;;;16.30;99.90;;;;;;5072157;28;20427;-44
2023/06/24 01:53:42;;;;;;;25.47;23.07;;;16.40;99.90;;;;;;5068530;28;21011;-44
2023/06/24 01:56:12;;;;;;;23.77;21.77;;;16.40;99.90;;;;;;5071705;28;20463;-44
2023/06/24 01:58:40;;;;;;;24.10;21.77;;;16.40;99.90;;;;;;5053636;28;20522;-44
2023/06/24 02:01:07;;;;;;;26.20;23.37;;;16.40;99.90;;;;;;5071751;28;20569;-44
2023/06/24 02:03:33;;;;;;;24.80;22.40;;;16.40;99.90;;;;;;5071811;28;20423;-44
2023/06/24 02:06:00;;;;;;;24.20;21.83;;;16.40;99.90;;;;;;5071483;28;21100;-44
2023/06/24 02:08:30;;;;;;;26.43;23.30;;;16.40;99.90;;;;;;5071824;28;20511;-45
2023/06/24 02:10:56;;;;;;;25.90;22.37;;;16.40;99.90;;;;;;5070695;28;20419;-46
2023/06/24 02:13:22;;;;;;;25.00;22.60;;;16.40;99.90;;;;;;5071518;28;20423;-49
2023/06/24 02:15:50;;;;;;;26.23;23.07;;;16.50;99.90;;;;;;5071292;28;20471;-48
2023/06/24 02:18:17;;;;;;;28.23;23.40;;;16.40;99.90;;;;;;5071406;28;20446;-44
2023/06/24 02:20:44;;;;;;;27.13;24.33;;;16.50;99.90;;;;;;5071385;28;20792;-47
2023/06/24 02:23:11;;;;;;;27.83;24.70;;;16.50;99.90;;;;;;5071428;28;20480;-43
2023/06/24 02:25:38;;;;;;;27.23;24.47;;;16.40;99.90;;;;;;5071153;28;20988;-45
2023/06/24 02:28:05;;;;;;;28.30;25.50;;;16.50;99.90;;;;;;5071270;28;20424;-45
2023/06/24 02:30:32;;;;;;;26.00;23.20;;;16.50;99.90;;;;;;5070861;28;20427;-45
2023/06/24 02:32:57;;;;;;;27.87;24.93;;;16.50;99.90;;;;;;5071043;28;20420;-46
2023/06/24 02:35:23;;;;;;;28.03;25.17;;;16.60;99.90;;;;;;5070935;28;20426;-48
2023/06/24 02:37:49;;;;;;;30.80;25.40;;;16.60;99.90;;;;;;5070723;28;20182;-47
2023/06/24 02:40:15;;;;;;;29.30;25.50;;;16.60;99.90;;;;;;5070951;28;20259;-45
2023/06/24 02:42:40;;;;;;;33.27;24.80;;;16.60;99.90;;;;;;5070491;28;20183;-44
2023/06/24 02:45:07;;;;;;;27.90;25.00;;;16.60;99.90;;;;;;5070659;28;20311;-49
2023/06/24 02:47:33;;;;;;;28.93;25.80;;;16.70;99.90;;;;;;5070767;28;20177;-47
2023/06/24 02:50:00;;;;;;;30.03;26.83;;;16.70;99.90;;;;;;5070664;28;20956;-45
2023/06/24 02:52:28;;;;;;;32.43;26.17;;;16.70;99.90;;;;;;5070812;28;20422;-45
2023/06/24 02:54:56;;;;;;;29.10;25.93;;;16.80;99.90;;;;;;5070522;28;20427;-50
2023/06/24 02:57:23;;;;;;;27.57;24.67;;;16.80;99.90;;;;;;5070420;28;20928;-47
2023/06/24 02:59:49;;;;;;;27.47;24.73;;;16.80;99.90;;;;;;5070489;28;20412;-44
2023/06/24 03:02:16;;;;;;;26.80;24.10;;;16.80;99.90;;;;;;5070445;28;21015;-45
2023/06/24 03:04:42;;;;;;;27.93;24.97;;;16.80;99.90;;;;;;5070349;28;20404;-43
2023/06/24 03:07:10;;;;;;;28.03;25.23;;;16.90;99.90;;;;;;5070569;28;20423;-46
2023/06/24 03:09:36;;;;;;;28.53;25.43;;;16.90;99.90;;;;;;5070322;28;20431;-45
2023/06/24 03:12:01;;;;;;;30.67;25.90;;;16.90;99.90;;;;;;5070597;28;20412;-50
2023/06/24 03:14:27;;;;;;;28.53;25.00;;;16.90;99.90;;;;;;5070512;28;20249;-48
2023/06/24 03:16:53;;;;;;;27.83;24.43;;;17.00;99.90;;;;;;5069251;28;20458;-54
2023/06/24 03:19:18;;;;;;;27.43;24.60;;;17.00;99.90;;;;;;5070353;28;20184;-52
2023/06/24 03:21:44;;;;;;;28.27;24.90;;;17.00;99.90;;;;;;5070253;28;20189;-49
2023/06/24 03:24:09;;;;;;;28.80;25.80;;;17.00;99.90;;;;;;5070236;28;20256;-49
2023/06/24 03:26:36;;;;;;;32.00;26.27;;;17.00;99.90;;;;;;5070271;28;20192;-48
2023/06/24 03:29:02;;;;;;;30.87;26.67;;;17.10;99.90;;;;;;5052195;28;20300;-49
2023/06/24 03:31:28;;;;;;;38.33;27.83;;;17.10;99.90;;;;;;5069724;28;20461;-48
2023/06/24 03:33:54;;;;;;;32.30;27.17;;;17.10;99.90;;;;;;5069920;28;20450;-50
2023/06/24 03:36:20;;;;;;;29.33;26.10;;;17.10;99.90;;;;;;5069747;28;20474;-50
2023/06/24 03:38:46;;;;;;;30.67;25.83;;;17.00;99.90;;;;;;5069980;28;20274;-45
2023/06/24 03:41:11;;;;;;;30.23;27.20;;;17.10;99.90;;;;;;5069977;28;20235;-51
2023/06/24 03:43:37;;;;;;;31.67;26.90;;;17.10;99.90;;;;;;5069715;28;20901;-46
2023/06/24 03:46:03;;;;;;;33.47;25.00;;;17.00;99.90;;;;;;5069588;28;20192;-49
2023/06/24 03:48:28;;;;;;;26.43;23.70;;;17.00;99.90;;;;;;5068913;28;20189;-51
2023/06/24 03:50:54;;;;;;;28.47;25.37;;;17.00;99.90;;;;;;5069824;28;20192;-53
2023/06/24 03:53:20;;;;;;;29.27;26.10;;;17.00;99.90;;;;;;5069490;28;20181;-49
2023/06/24 03:55:45;;;;;;;31.13;24.50;;;17.10;99.90;;;;;;5069258;28;20208;-48
2023/06/24 03:58:11;;;;;;;30.73;25.47;;;17.10;99.90;;;;;;5069509;28;20230;-47
2023/06/24 04:00:40;;;;;;;29.23;26.03;;;17.00;99.90;;;;;;5069269;28;20197;-46
2023/06/24 04:03:07;;;;;;;28.27;25.30;;;17.00;99.90;;;;;;5068549;28;20185;-46
2023/06/24 04:05:33;;;;;;;30.30;25.37;;;17.00;99.90;;;;;;5069132;28;20463;-52
2023/06/24 04:07:59;;;;;;;29.97;26.13;;;17.00;99.90;;;;;;5069628;28;20508;-48
2023/06/24 04:10:25;;;;;;;29.77;24.67;;;17.00;99.90;;;;;;5051372;28;20518;-49
2023/06/24 04:12:51;;;;;;;29.00;25.50;;;17.00;99.90;;;;;;5069390;28;20824;-50
2023/06/24 04:15:17;;;;;;;26.77;23.97;;;17.00;99.90;;;;;;5069215;28;20193;-51
2023/06/24 04:17:42;;;;;;;29.83;24.40;;;17.00;99.90;;;;;;5069150;28;20212;-51
2023/06/24 04:20:09;;;;;;;28.93;25.97;;;17.10;99.90;;;;;;5069491;28;20192;-49
2023/06/24 04:22:37;;;;;;;26.93;24.13;;;17.00;99.90;;;;;;5069575;28;20184;-49
2023/06/24 04:25:03;;;;;;;28.83;25.83;;;17.10;99.90;;;;;;5069552;28;20476;-46
2023/06/24 04:27:28;;;;;;;27.47;24.57;;;17.10;99.90;;;;;;5069245;28;21243;-48
2023/06/24 04:29:54;;;;;;;28.33;25.03;;;17.10;99.90;;;;;;5069256;28;20935;-52
2023/06/24 04:32:19;;;;;;;27.87;24.97;;;17.10;99.90;;;;;;5069075;28;20241;-48
2023/06/24 04:34:45;;;;;;;25.80;23.30;;;17.10;99.90;;;;;;5069060;28;20200;-49
2023/06/24 04:37:10;;;;;;;26.70;22.23;;;17.10;99.90;;;;;;5069164;28;20204;-53
2023/06/24 04:39:36;;;;;;;30.43;23.77;;;17.10;99.90;;;;;;5051260;28;20192;-50
2023/06/24 04:42:02;;;;;;;26.00;23.60;;;17.20;99.90;;;;;;5068816;28;20266;-51
2023/06/24 04:44:27;;;;;;;25.13;22.73;;;17.20;99.90;;;;;;5069201;28;20192;-50
2023/06/24 04:46:53;;;;;;;23.87;21.57;;;17.20;99.90;;;;;;5068726;28;20192;-45
2023/06/24 04:49:19;;;;;;;25.60;23.10;;;17.30;99.90;;;;;;5069245;28;20199;-51
2023/06/24 04:51:44;;;;;;;25.47;23.07;;;17.30;99.90;;;;;;5068997;28;20530;-49
2023/06/24 04:54:12;;;;;;;25.00;22.70;;;17.40;99.90;;;;;;5068983;28;20249;-48
2023/06/24 04:56:38;;;;;;;25.50;23.10;;;17.50;99.90;;;;;;5068705;28;20466;-52
2023/06/24 04:59:03;;;;;;;24.57;22.27;;;17.50;99.90;;;;;;5069149;28;20411;-47
2023/06/24 05:01:29;;;;;;;25.30;22.90;;;17.60;99.90;;;;;;5061490;28;20936;-48
2023/06/24 05:03:54;;;;;;;24.17;22.13;;;17.60;99.90;;;;;;5068952;28;20189;-47
2023/06/24 05:06:20;;;;;;;25.43;23.13;;;17.70;99.90;;;;;;5052991;28;20236;-46
2023/06/24 05:08:46;;;;;;;25.23;22.93;;;17.80;99.90;;;;;;5073046;28;20169;-47
2023/06/24 05:11:11;;;;;;;24.60;22.53;;;17.90;99.90;;;;;;5054796;28;20639;-48
2023/06/24 05:13:37;;;;;;;22.63;20.63;;;17.90;99.90;;;;;;5072181;28;20243;-48
2023/06/24 05:16:03;;;;;;;24.73;22.10;;;17.80;99.90;;;;;;5063407;28;20215;-50
2023/06/24 05:18:29;;;;;;;25.70;23.20;;;17.80;99.90;;;;;;5053131;28;20420;-46
2023/06/24 05:20:54;;;;;;;24.80;22.70;;;17.80;99.90;;;;;;5053164;28;20589;-47
2023/06/24 05:23:20;;;;;;;24.37;22.30;;;17.80;99.90;;;;;;5052791;28;20526;-47
2023/06/24 05:25:45;;;;;;;24.50;22.20;;;17.90;99.90;;;;;;5052687;28;20178;-49
2023/06/24 05:28:11;;;;;;;25.67;23.43;;;17.80;99.90;;;;;;5061397;28;20268;-50
2023/06/24 05:30:37;;;;;;;26.67;24.03;;;17.90;99.90;;;;;;5072694;28;20196;-49
2023/06/24 05:33:02;;;;;;;25.63;23.23;;;18.00;99.90;;;;;;5072284;28;20177;-47
2023/06/24 05:35:28;;;;;;;25.23;23.13;;;18.00;99.90;;;;;;5071700;28;20166;-49
2023/06/24 05:37:53;;;;;;;28.53;26.03;;;18.10;99.90;;;;;;5071797;28;20618;-48
2023/06/24 05:40:19;;;;;;;28.03;25.63;;;18.10;99.90;;;;;;5072212;28;20200;-49
2023/06/24 05:42:45;;;;;;;28.67;26.10;;;18.10;99.90;;;;;;5068843;28;20190;-48
2023/06/24 05:45:10;;;;;;;29.10;26.33;;;18.00;99.90;;;;;;5068300;28;20192;-50
2023/06/24 05:47:37;;;;;;;28.37;25.80;;;18.10;99.90;;;;;;5067542;28;20623;-46
2023/06/24 05:50:03;;;;;;;28.77;26.30;;;18.10;99.90;;;;;;5069337;28;20181;-51
2023/06/24 05:52:29;;;;;;;30.27;27.37;;;18.10;99.90;;;;;;5070729;28;20422;-51
2023/06/24 05:54:55;;;;;;;30.53;27.73;;;18.10;99.90;;;;;;5070886;28;20473;-46
2023/06/24 05:57:20;;;;;;;29.23;26.63;;;18.10;99.90;;;;;;5070615;28;20201;-48
2023/06/24 05:59:46;;;;;;;31.00;28.13;;;18.00;99.90;;;;;;5069691;28;20169;-47
2023/06/24 06:02:11;;;;;;;30.00;27.33;;;18.00;99.90;;;;;;5070690;28;20177;-50
2023/06/24 06:04:38;;;;;;;30.80;28.07;;;18.00;99.90;;;;;;5070473;28;20213;-48
2023/06/24 06:07:04;;;;;;;30.63;27.57;;;18.10;99.90;;;;;;5052755;28;20185;-47
2023/06/24 06:09:30;;;;;;;30.07;27.20;;;18.00;99.90;;;;;;5067113;28;20433;-46
2023/06/24 06:11:55;;;;;;;31.00;27.73;;;18.00;99.90;;;;;;5070578;28;20208;-46
2023/06/24 06:14:21;;;;;;;29.33;26.60;;;18.00;99.90;;;;;;5070715;28;20177;-51
2023/06/24 06:16:47;;;;;;;29.53;26.83;;;18.00;99.90;;;;;;5069906;28;20209;-48
2023/06/24 06:19:12;;;;;;;30.67;27.57;;;18.00;99.90;;;;;;5069770;28;20264;-46
2023/06/24 06:21:38;;;;;;;30.10;27.00;;;18.00;99.90;;;;;;5070209;28;20195;-48
2023/06/24 06:24:04;;;;;;;29.27;26.57;;;18.00;99.90;;;;;;5070584;28;20226;-48
2023/06/24 06:26:29;;;;;;;30.60;27.70;;;17.80;99.90;;;;;;5070437;28;20286;-47
2023/06/24 06:28:55;;;;;;;29.30;26.53;;;17.80;99.90;;;;;;5070498;28;21265;-50
2023/06/24 06:31:21;;;;;;;30.30;27.20;;;17.70;99.90;;;;;;5069213;28;20187;-47
2023/06/24 06:33:47;;;;;;;29.40;26.20;;;17.60;99.90;;;;;;5068711;28;20285;-52
2023/06/24 06:36:13;;;;;;;29.33;26.63;;;17.50;99.90;;;;;;5064051;28;20209;-51
2023/06/24 06:38:40;;;;;;;29.80;26.87;;;17.40;99.90;;;;;;5066445;28;20947;-52
2023/06/24 06:41:05;;;;;;;30.60;27.53;;;17.40;99.90;;;;;;5069886;28;20415;-47
2023/06/24 06:43:33;;;;;;;30.50;27.47;;;17.30;99.90;;;;;;5066161;28;20445;-49
2023/06/24 06:45:58;;;;;;;30.67;27.60;;;17.30;99.90;;;;;;5059823;28;20180;-49
2023/06/24 06:48:24;;;;;;;29.53;26.20;;;17.30;99.90;;;;;;5068032;28;21141;-49
2023/06/24 06:50:52;;;;;;;30.77;27.60;;;17.30;99.90;;;;;;5069793;28;20177;-52
2023/06/24 06:53:17;;;;;;;31.07;27.97;;;17.30;99.90;;;;;;5067435;28;20341;-48
2023/06/24 06:55:43;;;;;;;29.40;26.53;;;17.30;99.90;;;;;;5069478;28;20522;-47
2023/06/24 06:58:09;;;;;;;29.53;26.70;;;17.30;99.90;;;;;;5069386;28;20603;-47
2023/06/24 07:00:34;;;;;;;30.23;27.27;;;17.30;99.90;;;;;;5069120;28;20268;-45
2023/06/24 07:03:00;;;;;;;30.47;27.47;;;17.20;99.90;;;;;;5069304;28;20181;-49
2023/06/24 07:05:25;;;;;;;29.83;26.87;;;17.20;99.90;;;;;;5067443;28;20759;-47
2023/06/24 07:07:51;;;;;;;29.23;26.27;;;17.20;99.90;;;;;;5069692;28;20177;-51
2023/06/24 07:10:17;;;;;;;30.20;27.13;;;17.20;99.90;;;;;;5070325;28;20177;-51
2023/06/24 07:12:43;;;;;;;30.33;27.23;;;17.20;99.90;;;;;;5069859;28;20189;-49
2023/06/24 07:15:09;;;;;;;30.43;27.43;;;17.10;99.90;;;;;;5070786;28;20230;-46
2023/06/24 07:17:34;;;;;;;30.20;27.00;;;17.10;99.90;;;;;;5070573;28;20205;-45
2023/06/24 07:20:00;;;;;;;30.03;27.10;;;17.10;99.90;;;;;;5069380;28;20795;-48
2023/06/24 07:22:26;;;;;;;30.80;27.90;;;17.10;99.90;;;;;;5069511;28;20161;-47
2023/06/24 07:24:51;;;;;;;29.43;26.37;;;17.10;99.90;;;;;;5069535;28;20242;-52
2023/06/24 07:27:17;;;;;;;30.83;27.73;;;17.10;99.90;;;;;;5069202;28;20181;-47
2023/06/24 07:29:42;;;;;;;29.87;26.97;;;17.10;99.90;;;;;;5068344;28;20661;-48
2023/06/24 07:32:08;;;;;;;30.70;27.50;;;17.10;99.90;;;;;;5069277;28;20161;-47
2023/06/24 07:34:34;;;;;;;28.70;25.83;;;17.20;99.90;;;;;;5069224;28;20226;-45
2023/06/24 07:36:59;;;;;;;29.53;26.53;;;17.30;99.90;;;;;;5069054;28;20208;-49
2023/06/24 07:39:25;;;;;;;28.50;25.80;;;17.40;99.90;;;;;;5069272;28;20207;-48
2023/06/24 07:41:51;;;;;;;28.20;25.40;;;17.50;99.90;;;;;;5069551;28;20157;-48
2023/06/24 07:44:16;;;;;;;28.03;25.70;;;17.60;99.90;;;;;;5068183;28;20620;-45
2023/06/24 07:46:43;;;;;;;28.23;25.43;;;17.70;99.90;;;;;;5068705;28;20201;-47
2023/06/24 07:49:09;;;;;;;27.50;25.10;;;17.90;99.90;;;;;;5059689;28;20187;-46
2023/06/24 07:51:37;;;;;;;27.50;25.10;;;18.10;99.90;;;;;;5067090;28;20933;-45
2023/06/24 07:54:02;;;;;;;25.70;23.50;;;18.20;99.90;;;;;;5071240;28;20181;-46
2023/06/24 07:56:28;;;;;;;26.40;24.30;;;18.40;99.90;;;;;;5066719;28;20878;-47
2023/06/24 07:58:54;;;;;;;26.07;23.90;;;18.60;99.90;;;;;;5059105;28;20196;-45
2023/06/24 08:01:20;;;;;;;25.30;23.20;;;18.70;99.90;;;;;;5046988;28;20501;-45
2023/06/24 08:03:45;;;;;;;26.80;24.50;;;18.90;99.90;;;;;;5048655;28;20443;-46
2023/06/24 08:06:11;;;;;;;26.63;24.00;;;19.00;99.90;;;;;;5068124;28;20241;-49
2023/06/24 08:08:37;;;;;;;26.30;24.20;;;19.30;99.90;;;;;;5059217;28;20264;-48
2023/06/24 08:11:03;;;;;;;24.00;22.10;;;19.40;99.90;;;;;;5063333;28;20268;-50
2023/06/24 08:13:29;;;;;;;24.63;22.53;;;19.70;99.90;;;;;;5069172;28;20173;-49
2023/06/24 08:15:54;;;;;;;27.40;25.20;;;19.80;99.90;;;;;;5051205;28;20474;-46
2023/06/24 08:18:20;;;;;;;25.00;23.07;;;19.90;99.90;;;;;;5060330;28;20188;-50
2023/06/24 08:20:45;;;;;;;22.93;21.00;;;19.90;99.90;;;;;;5066538;28;20181;-47
2023/06/24 08:23:11;;;;;;;23.80;21.90;;;19.90;99.90;;;;;;5069218;28;20177;-51
2023/06/24 08:25:37;;;;;;;22.80;21.10;;;19.90;99.90;;;;;;5066841;28;20189;-49
2023/06/24 08:28:02;;;;;;;23.47;21.77;;;20.00;99.90;;;;;;5069338;28;20261;-50
2023/06/24 08:30:28;;;;;;;20.70;19.30;;;19.70;99.90;;;;;;5068467;28;20180;-48
2023/06/24 08:32:54;;;;;;;21.53;19.77;;;19.90;99.90;;;;;;5067890;28;20185;-48
2023/06/24 08:35:19;;;;;;;22.07;20.47;;;19.90;99.90;;;;;;5061333;28;20170;-46
2023/06/24 08:37:45;;;;;;;21.27;19.77;;;19.90;99.90;;;;;;5059525;28;20197;-50
2023/06/24 08:40:11;;;;;;;20.13;18.70;;;20.00;99.90;;;;;;5062003;28;20953;-50
2023/06/24 08:42:36;;;;;;;20.30;18.73;;;20.10;99.90;;;;;;5072926;28;20184;-47
2023/06/24 08:45:02;;;;;;;20.40;18.70;;;20.10;99.90;;;;;;5061747;28;20442;-50
2023/06/24 08:47:29;;;;;;;20.00;18.40;;;20.10;99.90;;;;;;5072866;28;20177;-45
2023/06/24 08:50:27;;;;;;;19.77;18.30;;;20.30;99.90;;;;;;5067473;28;20177;-49
2023/06/24 08:52:52;;;;;;;20.20;18.80;;;20.40;99.90;;;;;;5051074;28;20426;-51
2023/06/24 08:55:22;;;;;;;19.70;18.23;;;20.70;99.90;;;;;;5072227;28;20407;-49
2023/06/24 08:57:47;;;;;;;20.60;19.30;;;21.00;99.90;;;;;;5071115;28;20463;-47
2023/06/24 09:00:14;;;;;;;20.23;18.70;;;21.10;99.90;;;;;;5072815;28;20411;-49
2023/06/24 09:02:39;;;;;;;18.20;17.00;;;21.10;99.90;;;;;;5066052;28;20178;-48
2023/06/24 09:05:06;;;;;;;17.87;16.70;;;21.30;99.90;;;;;;5068315;28;20532;-49
2023/06/24 09:07:32;;;;;;;18.70;17.50;;;21.40;99.90;;;;;;5072635;28;20189;-49
2023/06/24 09:09:57;;;;;;;18.73;17.47;;;21.60;99.90;;;;;;5058962;28;21016;-49
2023/06/24 09:12:26;;;;;;;18.10;17.00;;;22.00;99.90;;;;;;5046147;28;21287;-46
2023/06/24 09:14:52;;;;;;;18.60;17.20;;;22.00;99.90;;;;;;5072249;28;20195;-48
2023/06/24 09:17:21;;;;;;;17.47;16.30;;;22.00;99.90;;;;;;5072154;28;20451;-49
2023/06/24 09:19:47;;;;;;;18.60;17.20;;;21.80;99.90;;;;;;5071280;28;20434;-51
2023/06/24 09:22:19;;;;;;;16.67;15.77;;;22.00;99.90;;;;;;5065666;28;20881;-51
2023/06/24 09:24:46;;;;;;;16.17;15.17;;;22.30;99.90;;;;;;5043238;28;20441;-47
2023/06/24 09:27:14;;;;;;;16.43;15.43;;;22.60;99.90;;;;;;5071045;28;20816;-49
2023/06/24 09:29:41;;;;;;;16.60;15.50;;;22.90;99.60;;;;;;5069415;28;20410;-46
2023/06/24 09:32:07;;;;;;;16.77;15.67;;;23.20;98.90;;;;;;5062956;28;20415;-48
2023/06/24 09:34:33;;;;;;;16.90;15.80;;;23.60;96.60;;;;;;5067869;28;20970;-52
2023/06/24 09:36:59;;;;;;;15.83;14.53;;;23.60;94.20;;;;;;5070372;28;20796;-47
2023/06/24 09:39:29;;;;;;;16.47;15.27;;;23.50;92.10;;;;;;5058933;28;20447;-51
2023/06/24 09:42:00;;;;;;;16.07;14.97;;;23.20;88.70;;;;;;5069854;28;20500;-49
2023/06/24 09:44:26;;;;;;;16.03;15.00;;;23.60;94.60;;;;;;5068048;28;20915;-47
2023/06/24 09:46:52;;;;;;;16.17;15.17;;;24.20;91.30;;;;;;5067779;28;20430;-46
2023/06/24 09:49:18;;;;;;;16.07;15.07;;;24.10;79.00;;;;;;5054705;28;20440;-50
2023/06/24 09:51:52;;;;;;;15.50;14.50;;;24.10;85.20;;;;;;5067845;28;20428;-51
2023/06/24 09:54:18;;;;;;;15.30;14.40;;;24.00;83.70;;;;;;5068632;28;20431;-51
2023/06/24 09:56:47;;;;;;;16.60;15.70;;;24.30;88.90;;;;;;5064016;28;20459;-49
2023/06/24 09:59:13;;;;;;;15.60;14.80;;;24.70;79.80;;;;;;5067047;28;20422;-47
2023/06/24 10:01:41;;;;;;;15.27;14.37;;;25.10;78.90;;;;;;5068542;28;20905;-49
2023/06/24 10:04:07;;;;;;;16.43;15.30;;;25.50;66.90;;;;;;5055561;28;20403;-51
2023/06/24 10:06:34;;;;;;;17.37;16.37;;;26.40;70.50;;;;;;5071715;28;20458;-49
2023/06/24 10:09:00;;;;;;;15.90;15.00;;;26.60;64.10;;;;;;5069943;28;20424;-49
2023/06/24 10:11:26;;;;;;;15.43;14.60;;;26.50;61.80;;;;;;5056600;28;20949;-47
2023/06/24 10:13:52;;;;;;;16.03;14.93;;;27.00;63.30;;;;;;5058747;28;20436;-48
2023/06/24 10:16:18;;;;;;;15.53;14.63;;;27.80;59.70;;;;;;5071504;28;20232;-51
2023/06/24 10:18:45;;;;;;;15.90;14.90;;;27.80;52.20;;;;;;5071556;28;20485;-49
2023/06/24 10:21:11;;;;;;;15.47;14.67;;;28.00;52.30;;;;;;5071392;28;20419;-49
2023/06/24 10:23:52;;;;;;;15.60;14.70;;;28.40;51.20;;;;;;5071333;28;20408;-50
2023/06/24 10:26:29;;;;;;;15.93;14.90;;;28.80;49.50;;;;;;5057607;28;20959;-48
2023/06/24 10:29:06;;;;;;;15.70;14.90;;;29.30;48.60;;;;;;5071143;28;20415;-49
2023/06/24 10:31:44;;;;;;;15.57;14.77;;;28.70;46.60;;;;;;5062035;28;20416;-45
2023/06/24 10:34:39;;;;;;;15.90;15.00;;;28.40;49.30;;;;;;5063784;28;20523;-49
2023/06/24 10:37:19;;;;;;;14.90;14.10;;;27.90;49.20;;;;;;5058834;28;20575;-48
2023/06/24 10:39:54;;;;;;;16.00;15.10;;;27.00;46.40;;;;;;5055693;28;20443;-50
2023/06/24 10:42:46;;;;;;;16.50;15.60;;;26.70;50.50;;;;;;5070743;28;20422;-50
2023/06/24 10:45:12;;;;;;;15.93;15.00;;;26.60;52.70;;;;;;5060037;28;20413;-44
2023/06/24 10:47:56;;;;;;;15.33;14.53;;;26.30;52.30;;;;;;5068915;28;20427;-46
2023/06/24 10:50:23;;;;;;;16.17;15.17;;;26.30;58.30;;;;;;5068639;28;20420;-47
2023/06/24 10:52:55;;;;;;;16.33;15.03;;;26.30;52.10;;;;;;5070396;28;20420;-48
2023/06/24 10:55:24;;;;;;;15.90;14.87;;;25.70;51.50;;;;;;5070596;28;20951;-47
2023/06/24 10:57:50;;;;;;;16.13;15.13;;;24.90;57.40;;;;;;5070923;28;20496;-51
2023/06/24 11:00:16;;;;;;;15.20;14.30;;;25.10;62.90;;;;;;5052455;28;20601;-49
2023/06/24 11:02:42;;;;;;;14.37;13.57;;;25.50;60.10;;;;;;5069853;28;20181;-51
2023/06/24 11:05:08;;;;;;;13.53;12.73;;;25.70;55.50;;;;;;5070020;28;20470;-50
2023/06/24 11:07:38;;;;;;;14.47;13.67;;;26.40;54.60;;;;;;5070657;28;20408;-48
2023/06/24 11:10:16;;;;;;;14.93;14.03;;;27.30;50.70;;;;;;5070397;28;20185;-53
2023/06/24 11:12:43;;;;;;;14.33;13.53;;;28.20;48.90;;;;;;5068933;28;20528;-48
2023/06/24 11:15:11;;;;;;;13.77;13.07;;;28.90;47.70;;;;;;5070020;28;20427;-50
2023/06/24 11:17:38;;;;;;;15.73;14.83;;;29.40;45.50;;;;;;5067296;28;20463;-48
2023/06/24 11:20:08;;;;;;;15.37;14.57;;;29.40;45.10;;;;;;5064201;28;20416;-52
2023/06/24 11:22:34;;;;;;;15.73;14.70;;;29.70;42.80;;;;;;5069802;28;20407;-47
2023/06/24 11:24:59;;;;;;;15.30;14.10;;;30.20;43.00;;;;;;5069220;28;20399;-47
2023/06/24 11:27:27;;;;;;;15.00;14.20;;;30.60;40.80;;;;;;5069113;28;20208;-49
2023/06/24 11:29:54;;;;;;;14.80;14.00;;;31.00;40.40;;;;;;5068696;28;20177;-49
2023/06/24 11:32:19;;;;;;;14.30;13.50;;;31.30;39.70;;;;;;5070123;28;20399;-50
2023/06/24 11:34:46;;;;;;;14.47;13.73;;;31.50;38.30;;;;;;5069706;28;20388;-48
2023/06/24 11:37:13;;;;;;;14.80;14.00;;;31.80;36.70;;;;;;5068614;28;20212;-47
2023/06/24 11:39:39;;;;;;;14.00;13.30;;;31.50;32.30;;;;;;5070100;28;20729;-52
2023/06/24 11:42:08;;;;;;;16.00;15.03;;;30.90;34.00;;;;;;5069875;28;20406;-46
2023/06/24 11:44:33;;;;;;;16.23;15.33;;;30.90;36.30;;;;;;5069958;28;20411;-50
2023/06/24 11:47:06;;;;;;;14.93;14.13;;;31.30;36.90;;;;;;5069501;28;20412;-51
2023/06/24 11:49:32;;;;;;;16.00;15.20;;;31.30;35.80;;;;;;5063394;28;20227;-45
2023/06/24 11:51:58;;;;;;;14.50;13.80;;;30.80;36.30;;;;;;5066294;28;20415;-50
2023/06/24 11:54:24;;;;;;;15.37;14.57;;;30.60;35.10;;;;;;5069886;28;20178;-50
2023/06/24 11:56:52;;;;;;;15.43;14.47;;;30.70;35.40;;;;;;5068407;28;20196;-48
2023/06/24 11:59:20;;;;;;;14.97;14.17;;;30.40;36.70;;;;;;5069056;28;20204;-49
2023/06/24 12:01:57;;;;;;;15.07;14.27;;;30.60;35.10;;;;;;5069276;28;20415;-49
2023/06/24 12:04:31;;;;;;;14.80;14.00;;;31.10;39.00;;;;;;5069303;28;20435;-48
2023/06/24 12:06:57;;;;;;;15.93;15.03;;;31.70;38.00;;;;;;5066232;28;20475;-47
2023/06/24 12:09:23;;;;;;;15.43;14.63;;;32.00;32.80;;;;;;5068361;28;20427;-52
2023/06/24 12:11:49;;;;;;;15.30;14.50;;;31.90;31.40;;;;;;5069438;28;20430;-49
2023/06/24 12:14:14;;;;;;;15.03;14.23;;;32.10;32.20;;;;;;5069366;28;20230;-43
2023/06/24 12:16:40;;;;;;;15.07;14.27;;;32.30;34.70;;;;;;5068953;28;21130;-44
2023/06/24 12:19:06;;;;;;;15.03;14.03;;;32.30;33.30;;;;;;5069630;28;20184;-44
2023/06/24 12:21:32;;;;;;;14.97;14.17;;;31.80;33.40;;;;;;5069225;28;20633;-51
2023/06/24 12:23:58;;;;;;;15.07;14.27;;;32.10;35.30;;;;;;5069018;28;20415;-46
2023/06/24 12:26:24;;;;;;;14.57;13.77;;;32.50;34.50;;;;;;5069305;28;20469;-47
2023/06/24 12:28:49;;;;;;;15.00;14.20;;;32.60;34.00;;;;;;5068900;28;20192;-49